Cookies

¿Aceptas nuestras cookies?

Aceptar
VAM | Vabird-VBD

Virtual Vabird! Aerolínea Virtual de habla hispana, desde 2011




 INFORMACIÓN METAR y TAF
METAR FOR NZWN
ADDS - METARS form results

(1222 UTC 03 December 2021)
Data provider http://aviationweather.gov/metar/data/
 
METAR text: NZWN 031200Z AUTO 01012KT 9999 BKN016/// 18/16 Q1021 TEMPO 6000 SHRA BKN012
Conditions at: NZWN (WELLINGTON INTL , NZ) observed 1200 UTC 03 December 2021
Temperature: 18.0°C (64°F)
Dewpoint: 16.0°C (61°F) [RH = 88%]
Pressure (altimeter): 30.15 inches Hg (1021.0 mb)
Winds: from the N (10 degrees) at 14 MPH (12 knots; 6.2 m/s)
Visibility: 6 or more miles (10+ km)
Ceiling: 1600 feet AGL
Clouds: broken clouds at 1600 feet AGL
Weather: no significant weather observed at this time

METAR text: NZWN 031130Z AUTO 36011KT 9999 FEW018/// 18/15 Q1021 NOSIG
Conditions at: NZWN (WELLINGTON INTL , NZ) observed 1130 UTC 03 December 2021
Temperature: 18.0°C (64°F)
Dewpoint: 15.0°C (59°F) [RH = 83%]
Pressure (altimeter): 30.15 inches Hg (1021.0 mb)
Winds: from the N (360 degrees) at 13 MPH (11 knots; 5.7 m/s)
Visibility: 6 or more miles (10+ km)
Ceiling: at least 12,000 feet AGL
Clouds: few clouds at 1800 feet AGL
Weather: no significant weather observed at this time

Forecast for: NZWN (WELLINGTON INTL , NZ)
Text: TAF NZWN 031103Z 0312/0412 01012KT 9999 BKN018
Forecast period: 1200 UTC 03 December 2021 to 1200 UTC 04 December 2021
Forecast type: FROM: standard forecast or significant change
Winds: from the N (10 degrees) at 14 MPH (12 knots; 6.2 m/s)
Visibility: 6 or more miles (10+ km)
Ceiling: 1800 feet AGL
Clouds: broken clouds at 1800 feet AGL
Weather: no significant weather forecast for this period
Text: TEMPO 0312/0322 6000 SHRA BKN012
Forecast period: 1200 to 2200 UTC 03 December 2021
Forecast type: TEMPORARY: The following changes expected for less than half the time period
Visibility: 4 miles (6 km)
Ceiling: 1200 feet AGL
Clouds: broken clouds at 1200 feet AGL
Weather: SHRA  (rain showers)
Text: TEMPO 0409/0412 6000 SHRA
Forecast period: 0900 to 1200 UTC 04 December 2021
Forecast type: TEMPORARY: The following changes expected for less than half the time period
Visibility: 4 miles (6 km)
Ceiling: unknown
Clouds: missing
Weather: SHRA  (rain showers)

 MAPA DE AEROPUERTO

 INFORMACIÓN DE PISTA